KAPAKSBS

Guest
Details From KAPA - CENTENNIAL
To KSBS - STEAMBOAT SPRINGS BOB ADAMS FLD
Flight Number -
Tags decoded
Created
Modified
Stats Distance 133 nm / 246 km
Max Altitude 0 ft / 0 m
Waypoints 8
Social Downloads 1
Likes 0
Share VATSIM

Download

Looking for another format? Having issues loading an existing format? Contact us
Advertisement - Login to hide

Notes

Requested: KAPA SIGNE V81 BJC HYGEN V85 RIDJE KSBS

Route

KAPA SIGNE V81 BJC HYGEN V85 RIDJE KSBS

ID Type Via Altitude Latitude Longitude Leg Dist Tot Dist Heading (true) Name
O KAPA APT - 0 ft / 0 m 39.57012˚ -104.84813˚ - 0 nm - CENTENNIAL
SIGNE FIX - 0 ft / 0 m 39.50089˚ -104.92200˚ 5 nm 5 nm 219° / 219° -
BJC VOR V81 (AWY-LO) 0 ft / 0 m 39.91303˚ -105.13903˚ 26 nm 32 nm 338° / 338° JEFFCO VOR-DME
HYGEN FIX - 0 ft / 0 m 40.15108˚ -105.18275˚ 14 nm 46 nm 352° / 352° -
TOMSN FIX V85 (AWY-LO) 0 ft / 0 m 40.35674˚ -105.43696˚ 16 nm 63 nm 317° / 317° -
ALLAN FIX V85 (AWY-LO) 0 ft / 0 m 40.42296˚ -105.51926˚ 5 nm 68 nm 317° / 317° -
RIDJE FIX V85 (AWY-LO) 0 ft / 0 m 40.51817˚ -105.63813˚ 7 nm 76 nm 317° / 316° -
O KSBS APT - 0 ft / 0 m 40.51626˚ -106.86630˚ 56 nm 132 nm 270° / 269° STEAMBOAT SPRINGS BOB ADAMS FLD

Altitude Profile

Advertisement - Login to hide

KAPA

Details ICAO KAPA (APA)
Name CENTENNIAL
Region United States
Timezone America/Denver (UTC-7.0)
Stats Elevation 5,883 ft / 1,793 m (AMSL)
Location 39.570116° -104.848132°
Runways 3
Magnetic Variation 8.129° E

METAR

KAPA 112353Z 12005KT 10SM SCT220 06/M14 A3042 RMK AO2 SLP314 T00611139 10144 20061 51026

Decode

TAF

TAF KAPA 112320Z 1200/1224 06006KT P6SM SCT220 FM120100 24006KT P6SM FEW220 FM120200 19007KT P6SM FEW200 FM121700 VRB04KT P6SM FEW220 FM122000 06005KT P6SM FEW120 SCT220

Decode

Departure Runways

ID Width Length Bearing (true) Bearing (mag) Surface Threshold Offset Overrun Length
10 75 ft / 23 m 4,791 ft / 1,460 m 111.02° 102.89° Asphalt 0 ft / 0 m 0 ft / 0 m
17L 100 ft / 30 m 10,017 ft / 3,053 m 177.97° 169.84° Asphalt 0 ft / 0 m 0 ft / 0 m
17R 77 ft / 23 m 7,014 ft / 2,138 m 177.96° 169.83° Asphalt 0 ft / 0 m 0 ft / 0 m
28 75 ft / 23 m 4,791 ft / 1,460 m 291.03° 282.90° Asphalt 0 ft / 0 m 0 ft / 0 m
35L 77 ft / 23 m 7,014 ft / 2,138 m 357.96° 349.83° Asphalt 0 ft / 0 m 0 ft / 0 m
35R 100 ft / 30 m 10,017 ft / 3,053 m 357.97° 349.84° Asphalt 0 ft / 0 m 0 ft / 0 m

KSBS

Details ICAO KSBS (SBS)
Name STEAMBOAT SPRINGS BOB ADAMS FLD
Region United States
Timezone America/Denver (UTC-7.0)
Stats Elevation 6,878 ft / 2,096 m (AMSL)
Location 40.516258° -106.866302°
Runways 1
Magnetic Variation 9.236° E

METAR

KSBS 120030Z AUTO 00000KT 10SM CLR 00/M12 A3051 RMK AO1 T10041116

Decode

TAF

Not found

Destination Runways

ID Width Length Bearing (true) Bearing (mag) Surface Threshold Offset Overrun Length
14 100 ft / 30 m 4,454 ft / 1,358 m 152.97° 143.73° Asphalt 0 ft / 0 m 0 ft / 0 m
32 100 ft / 30 m 4,454 ft / 1,358 m 332.97° 323.73° Asphalt 600 ft / 183 m 0 ft / 0 m

Popular Alternatives